^^
Saratoga-Weather Station Historical Data
Daily Summary for October 22, 2021 Units:  English    Metric   Both
Daily Weekly Monthly Yearly Custom
  High: Low: Average:
Temperature: 48.7 °F 36.9 °F 40.8 °F
Dew Point: 43.9 °F 35.6 °F 38.8 °F
Humidity: 96% 82% 93%
Wind Speed: 13mph 0mph 2.5mph
Wind Gust: 13mph - -
Wind- - WSW
Pressure: 30.2 in 30 in -
Precipitation: 0.01 in    
Historical Graphs
 
 
Tabular Data for October 22, 2021
Time Temperature Dew Point Pressure Wind Wind Speed Wind Gust Humidity Rainfall Rate (Hourly) solar
00:04 43.7 °F 41.5 °F 30 in West 6.9 mph 8 mph 92% 0 in 0 W/m2
00:09 43.9 °F 41.7 °F 30 in West 2.9 mph 7 mph 92% 0 in 0 W/m2
00:14 43.9 °F 41.7 °F 30 in West 2 mph 6 mph 92% 0 in 0 W/m2
00:19 43.7 °F 41.5 °F 30 in West 2.9 mph 9 mph 92% 0 in 0 W/m2
00:24 43.7 °F 41.5 °F 30 in NW 2.9 mph 8 mph 92% 0 in 0 W/m2
00:29 43.7 °F 41.5 °F 30 in WNW 2 mph 7 mph 92% 0 in 0 W/m2
00:34 43.5 °F 41 °F 30 in West 4 mph 7 mph 91% 0 in 0 W/m2
00:39 43.5 °F 41 °F 30 in WSW 4.9 mph 7 mph 91% 0 in 0 W/m2
00:44 43.5 °F 41 °F 30 in WNW 2.9 mph 7 mph 91% 0 in 0 W/m2
00:49 43.3 °F 41.2 °F 30 in WSW 2.9 mph 7 mph 92% 0 in 0 W/m2
00:54 43.3 °F 41.2 °F 30 in WSW 2 mph 6 mph 92% 0 in 0 W/m2
00:59 43.3 °F 40.8 °F 30 in WNW 2.9 mph 4 mph 91% 0 in 0 W/m2
01:04 43.2 °F 41 °F 30 in WSW 4 mph 4 mph 92% 0 in 0 W/m2
01:10 43 °F 40.8 °F 30 in WSW 2.9 mph 7 mph 92% 0 in 0 W/m2
01:15 43 °F 40.8 °F 30 in West 2.9 mph 6 mph 92% 0 in 0 W/m2
01:20 43 °F 40.8 °F 30 in West 2.9 mph 7 mph 92% 0 in 0 W/m2
01:25 42.8 °F 40.6 °F 30 in WNW 4 mph 5 mph 92% 0 in 0 W/m2
01:30 42.6 °F 40.5 °F 30 in West 2 mph 7 mph 92% 0 in 0 W/m2
01:35 42.6 °F 40.5 °F 30 in West 2.9 mph 4 mph 92% 0 in 0 W/m2
01:40 42.4 °F 40.3 °F 30 in West 2.9 mph 7 mph 92% 0 in 0 W/m2
01:45 42.4 °F 40.3 °F 30 in West 2 mph 4 mph 92% 0 in 0 W/m2
01:50 42.4 °F 40.6 °F 30 in WSW 2 mph 4 mph 93% 0 in 0 W/m2
01:55 42.3 °F 40.5 °F 30 in West 0.9 mph 4 mph 93% 0 in 0 W/m2
02:00 42.3 °F 40.5 °F 30 in West 4 mph 5 mph 93% 0 in 0 W/m2
02:05 42.3 °F 40.5 °F 30 in WSW 2.9 mph 4 mph 93% 0 in 0 W/m2
02:10 42.3 °F 40.5 °F 30 in WNW 4 mph 8 mph 93% 0 in 0 W/m2
02:15 42.3 °F 40.5 °F 30 in SW 2 mph 4 mph 93% 0 in 0 W/m2
02:20 42.1 °F 39.9 °F 30 in West 2.9 mph 8 mph 92% 0 in 0 W/m2
02:25 41.9 °F 40.1 °F 30.1 in West 2.9 mph 6 mph 93% 0 in 0 W/m2
02:30 41.9 °F 40.1 °F 30.1 in West 4 mph 6 mph 93% 0 in 0 W/m2
02:35 41.7 °F 39.9 °F 30.1 in West 4 mph 6 mph 93% 0 in 0 W/m2
02:40 41.7 °F 39.9 °F 30.1 in West 6 mph 6 mph 93% 0 in 0 W/m2
02:45 41.7 °F 39.9 °F 30.1 in West 2 mph 6 mph 93% 0 in 0 W/m2
02:50 41.9 °F 40.1 °F 30.1 in WNW 2 mph 3 mph 93% 0 in 0 W/m2
02:55 41.9 °F 40.1 °F 30.1 in WNW 2.9 mph 4 mph 93% 0 in 0 W/m2
03:00 41.7 °F 39.9 °F 30.1 in West 2 mph 4 mph 93% 0 in 0 W/m2
03:05 41.7 °F 39.9 °F 30.1 in WNW 6.9 mph 7 mph 93% 0 in 0 W/m2
03:10 41.5 °F 39.7 °F 30.1 in Calm   6 mph 93% 0 in 0 W/m2
03:15 41.5 °F 39.7 °F 30.1 in West 2 mph 3 mph 93% 0 in 0 W/m2
03:20 41.4 °F 39.6 °F 30.1 in Calm   6 mph 93% 0 in 0 W/m2
03:25 41.2 °F 39.4 °F 30.1 in Calm   3 mph 93% 0 in 0 W/m2
03:30 41 °F 39.2 °F 30.1 in Calm   3 mph 93% 0 in 0 W/m2
03:35 40.8 °F 39 °F 30.1 in WNW 2 mph 7 mph 93% 0 in 0 W/m2
03:40 40.6 °F 38.8 °F 30.1 in WNW 0.9 mph 1 mph 93% 0 in 0 W/m2
03:45 40.6 °F 38.8 °F 30.1 in Calm   4 mph 93% 0 in 0 W/m2
03:50 40.5 °F 38.7 °F 30.1 in Calm     93% 0 in 0 W/m2
03:55 40.3 °F 38.5 °F 30 in Calm     93% 0 in 0 W/m2
04:00 39.9 °F 38.1 °F 30.1 in NW 0.9 mph 2 mph 93% 0 in 0 W/m2
04:05 39.9 °F 38.3 °F 30.1 in Calm   1 mph 94% 0 in 0 W/m2
04:10 39.9 °F 38.3 °F 30.1 in NW 2 mph 2 mph 94% 0 in 0 W/m2
04:15 39.9 °F 38.3 °F 30.1 in NW 0.9 mph 1 mph 94% 0 in 0 W/m2
04:20 39.7 °F 38.1 °F 30.1 in NW 0.9 mph 2 mph 94% 0 in 0 W/m2
04:25 39.4 °F 37.8 °F 30.1 in ENE 2 mph 2 mph 94% 0 in 0 W/m2
04:30 39.2 °F 37.6 °F 30.1 in ESE 0.9 mph 3 mph 94% 0 in 0 W/m2
04:35 39 °F 37.4 °F 30.1 in Calm   2 mph 94% 0 in 0 W/m2
04:40 38.8 °F 37.2 °F 30.1 in ESE 2 mph 2 mph 94% 0 in 0 W/m2
04:45 38.8 °F 37.2 °F 30.1 in East 0.9 mph 2 mph 94% 0 in 0 W/m2
04:50 38.7 °F 37 °F 30.1 in Calm   1 mph 94% 0 in 0 W/m2
04:55 38.7 °F 37 °F 30.1 in ESE 0.9 mph 1 mph 94% 0 in 0 W/m2
05:00 38.5 °F 36.9 °F 30.1 in Calm   2 mph 94% 0 in 0 W/m2
05:05 38.5 °F 37.2 °F 30.1 in ESE 0.9 mph 2 mph 95% 0 in 0 W/m2
05:10 38.3 °F 37 °F 30.1 in ESE 2 mph 2 mph 95% 0 in 0 W/m2
05:15 38.1 °F 36.9 °F 30.1 in ESE 2 mph 3 mph 95% 0 in 0 W/m2
05:20 38.1 °F 36.9 °F 30.1 in ESE 0.9 mph 2 mph 95% 0 in 0 W/m2
05:25 37.9 °F 36.7 °F 30.1 in East 0.9 mph 2 mph 95% 0 in 0 W/m2
05:30 37.9 °F 36.7 °F 30.1 in ESE 0.9 mph 2 mph 95% 0 in 0 W/m2
05:35 37.8 °F 36.5 °F 30.1 in Calm   3 mph 95% 0 in 0 W/m2
05:40 37.8 °F 36.5 °F 30.1 in East 2 mph 3 mph 95% 0 in 0 W/m2
05:45 37.9 °F 36.7 °F 30.1 in ESE 0.9 mph 2 mph 95% 0 in 0 W/m2
05:50 37.9 °F 36.7 °F 30.1 in Calm   3 mph 95% 0 in 0 W/m2
05:55 37.8 °F 36.5 °F 30.1 in Calm     95% 0 in 0 W/m2
06:01 37.8 °F 36.5 °F 30.1 in Calm   1 mph 95% 0 in 0 W/m2
06:06 37.8 °F 36.5 °F 30.1 in Calm   1 mph 95% 0 in 0 W/m2
06:11 37.8 °F 36.5 °F 30.1 in Calm     95% 0 in 0 W/m2
06:16 37.8 °F 36.5 °F 30.1 in NW 0.9 mph 3 mph 95% 0 in 0 W/m2
06:21 37.9 °F 36.7 °F 30.1 in WNW 0.9 mph 5 mph 95% 0 in 0 W/m2
06:26 38.3 °F 37.2 °F 30.1 in West 2.9 mph 4 mph 96% 0 in 0 W/m2
06:31 38.5 °F 37.4 °F 30.1 in WNW 2.9 mph 7 mph 96% 0 in 0 W/m2
06:36 38.5 °F 37.4 °F 30.1 in West 4 mph 8 mph 96% 0 in 0 W/m2
06:41 38.3 °F 37.2 °F 30.1 in West 2.9 mph 6 mph 96% 0 in 0 W/m2
06:46 38.1 °F 37 °F 30.1 in WNW 2.9 mph 5 mph 96% 0 in 0 W/m2
06:51 38.1 °F 37 °F 30.1 in NW 2 mph 4 mph 96% 0 in 0 W/m2
06:56 38.1 °F 37 °F 30.1 in NW 4 mph 6 mph 96% 0 in 0 W/m2
07:01 38.3 °F 37.2 °F 30.1 in WNW 2.9 mph 4 mph 96% 0 in 0 W/m2
07:06 38.3 °F 37.2 °F 30.1 in NW 2.9 mph 4 mph 96% 0 in 0 W/m2
07:11 38.3 °F 37.2 °F 30.1 in Calm   4 mph 96% 0 in 0 W/m2
07:16 38.3 °F 37.2 °F 30.1 in NW 0.9 mph 2 mph 96% 0 in 0 W/m2
07:21 38.3 °F 37.2 °F 30.1 in NW 0.9 mph 2 mph 96% 0 in 0 W/m2
07:26 38.1 °F 36.9 °F 30.1 in NW 0.9 mph 1 mph 95% 0 in 0 W/m2
07:31 37.9 °F 36.7 °F 30.1 in NW 0.9 mph 3 mph 95% 0 in 0 W/m2
07:36 37.9 °F 36.7 °F 30.1 in NW 0.9 mph 2 mph 95% 0 in 0 W/m2
07:41 37.8 °F 36.5 °F 30.1 in Calm   1 mph 95% 0 in 0 W/m2
07:46 37.8 °F 36.5 °F 30.1 in NE 0.9 mph 2 mph 95% 0 in 0 W/m2
07:51 37.6 °F 36.3 °F 30.1 in Calm   1 mph 95% 0 in 0 W/m2
07:56 37.6 °F 36.3 °F 30.1 in ENE 0.9 mph 2 mph 95% 0 in 0 W/m2
08:01 37.4 °F 36.1 °F 30.1 in Calm   1 mph 95% 0 in 0 W/m2
08:06 37.2 °F 36 °F 30.1 in Calm   1 mph 95% 0 in 0 W/m2
08:11 37 °F 35.8 °F 30.1 in NNW 2.9 mph 3 mph 95% 0 in 5 W/m2
08:16 37 °F 35.8 °F 30.1 in Calm   1 mph 95% 0 in 7 W/m2
08:21 37 °F 35.8 °F 30.1 in West 2.9 mph 7 mph 95% 0 in 9 W/m2
08:26 37 °F 35.8 °F 30.1 in Calm   2 mph 95% 0 in 11 W/m2
08:31 36.9 °F 35.6 °F 30.1 in NW 0.9 mph 7 mph 95% 0 in 12 W/m2
08:36 36.9 °F 35.6 °F 30.1 in Calm   2 mph 95% 0 in 14 W/m2
08:41 36.9 °F 35.6 °F 30.1 in WSW 0.9 mph 1 mph 95% 0 in 16 W/m2
08:46 36.9 °F 35.6 °F 30.1 in SW 3 mph 3 mph 95% 0 in 16 W/m2
08:51 36.9 °F 35.6 °F 30.1 in WNW 0.9 mph 1 mph 95% 0.01 in 18 W/m2
08:56 37 °F 35.8 °F 30.1 in WSW 0.9 mph 3 mph 95% 0.01 in 19 W/m2
09:01 37 °F 36 °F 30.1 in North 2 mph 2 mph 96% 0.01 in 21 W/m2
09:07 37.2 °F 36.1 °F 30.1 in NNE 2 mph 3 mph 96% 0.01 in 26 W/m2
09:12 37.2 °F 36.1 °F 30.1 in Calm   1 mph 96% 0.01 in 91 W/m2
09:17 37.4 °F 36.3 °F 30.1 in Calm   1 mph 96% 0.01 in 104 W/m2
09:22 37.6 °F 36.5 °F 30.1 in NW 2 mph 2 mph 96% 0.01 in 49 W/m2
09:27 37.6 °F 36.5 °F 30.1 in West 0.9 mph 2 mph 96% 0.01 in 32 W/m2
09:37 37.8 °F 36.7 °F 30.1 in West 2 mph 2 mph 96% 0.01 in 28 W/m2
09:42 37.9 °F 36.9 °F 30.1 in WNW 0.9 mph 3 mph 96% 0.01 in 30 W/m2
09:47 38.3 °F 37.2 °F 30.1 in WNW 2 mph 3 mph 96% 0.01 in 153 W/m2
09:52 38.8 °F 37.8 °F 30.1 in WNW 2.9 mph 5 mph 96% 0 in 30 W/m2
09:57 39.2 °F 38.1 °F 30.1 in WNW 2.9 mph 4 mph 96% 0 in 213 W/m2
10:02 39.6 °F 38.5 °F 30.1 in WNW 2 mph 8 mph 96% 0 in 223 W/m2
10:07 39.9 °F 38.8 °F 30.1 in WSW 4 mph 4 mph 96% 0 in 234 W/m2
10:12 40.3 °F 39 °F 30.1 in NW 4.9 mph 7 mph 95% 0 in 244 W/m2
10:17 40.6 °F 39 °F 30.1 in NW 0.9 mph 4 mph 94% 0 in 257 W/m2
10:22 40.8 °F 39.2 °F 30.1 in WNW 6 mph 6 mph 94% 0 in 262 W/m2
10:27 41 °F 39.2 °F 30.1 in WNW 6.9 mph 7 mph 93% 0 in 255 W/m2
10:32 41.2 °F 39.4 °F 30.1 in WSW 2.9 mph 8 mph 93% 0 in 283 W/m2
10:37 41.4 °F 39.2 °F 30.1 in NW 4 mph 7 mph 92% 0 in 288 W/m2
10:42 41.4 °F 39 °F 30.1 in West 6 mph 6 mph 91% 0 in 287 W/m2
10:47 41.4 °F 39 °F 30.1 in WNW 2 mph 6 mph 91% 0 in 125 W/m2
10:52 41.5 °F 39.2 °F 30.1 in WNW 2 mph 10 mph 91% 0 in 60 W/m2
10:57 41.5 °F 39.2 °F 30.1 in WNW 4.9 mph 8 mph 91% 0 in 118 W/m2
11:02 41.5 °F 39.2 °F 30.1 in West 2.9 mph 12 mph 91% 0 in 42 W/m2
11:07 41.5 °F 39.2 °F 30.1 in West 2 mph 6 mph 91% 0 in 37 W/m2
11:12 41.5 °F 39.2 °F 30.1 in West 8.1 mph 12 mph 91% 0 in 39 W/m2
11:17 41.9 °F 39.2 °F 30.1 in WNW 2.9 mph 9 mph 90% 0 in 39 W/m2
11:22 42.1 °F 39.4 °F 30.2 in WSW 2.9 mph 10 mph 90% 0 in 40 W/m2
11:27 42.3 °F 39.6 °F 30.2 in WSW 4.9 mph 8 mph 90% 0 in 42 W/m2
11:32 42.4 °F 39.7 °F 30.2 in WNW 0.9 mph 4 mph 90% 0 in 81 W/m2
11:37 42.4 °F 39.4 °F 30.2 in West 2.9 mph 9 mph 89% 0 in 53 W/m2
11:42 42.4 °F 39.4 °F 30.2 in NW 2.9 mph 6 mph 89% 0 in 81 W/m2
11:47 42.4 °F 39.4 °F 30.2 in NNW 2.9 mph 7 mph 89% 0 in 42 W/m2
11:52 42.4 °F 39.4 °F 30.2 in West 8.9 mph 9 mph 89% 0 in 40 W/m2
11:57 42.4 °F 39.4 °F 30.2 in WNW 2.9 mph 7 mph 89% 0 in 40 W/m2
12:02 42.4 °F 39.4 °F 30.2 in West 6 mph 12 mph 89% 0 in 42 W/m2
12:07 42.6 °F 39.6 °F 30.2 in WSW 0.9 mph 4 mph 89% 0 in 49 W/m2
12:12 43 °F 40.3 °F 30.2 in WSW 2 mph 12 mph 90% 0 in 137 W/m2
12:17 43.5 °F 40.8 °F 30.2 in WSW 4.9 mph 10 mph 90% 0 in 153 W/m2
12:22 44.2 °F 41.5 °F 30.2 in WSW 4.9 mph 11 mph 90% 0 in 113 W/m2
12:27 44.4 °F 41.4 °F 30.2 in NW 6 mph 8 mph 89% 0 in 95 W/m2
12:32 45 °F 41.9 °F 30.2 in West 6.9 mph 8 mph 89% 0 in 69 W/m2
12:37 45.1 °F 41.7 °F 30.2 in West 2.9 mph 7 mph 88% 0 in 144 W/m2
12:42 45.7 °F 42.3 °F 30.2 in WSW 4 mph 6 mph 88% 0 in 113 W/m2
12:47 46 °F 42.6 °F 30.2 in Calm   2 mph 88% 0 in 236 W/m2
12:52 46.6 °F 43.2 °F 30.2 in West 2.9 mph 6 mph 88% 0 in 190 W/m2
12:57 46.9 °F 43.5 °F 30.2 in NW 2.9 mph 6 mph 88% 0 in 218 W/m2
13:02 47.3 °F 43 °F 30.2 in West 2.9 mph 9 mph 85% 0 in 181 W/m2
13:07 47.5 °F 42.8 °F 30.2 in SW 6 mph 7 mph 84% 0 in 165 W/m2
13:12 47.7 °F 43 °F 30.2 in West 2.9 mph 10 mph 84% 0 in 176 W/m2
13:17 47.7 °F 42.8 °F 30.2 in SW 2.9 mph 5 mph 83% 0 in 225 W/m2
13:22 47.8 °F 43.2 °F 30.2 in WNW 12.1 mph 12 mph 84% 0 in 162 W/m2
13:27 48.4 °F 43.5 °F 30.2 in WNW 10.1 mph 13 mph 83% 0 in 183 W/m2
13:33 48.6 °F 43.3 °F 30.2 in WNW 4.9 mph 11 mph 82% 0 in 105 W/m2
13:38 48.6 °F 43.3 °F 30.2 in NW 13 mph 13 mph 82% 0 in 93 W/m2
13:43 48.7 °F 43.9 °F 30.2 in SW 4.9 mph 9 mph 83% 0 in 151 W/m2
Juneau County Weather
Compliments of Weather Underground - 2 mb